Time;durP1;ratioP1;P1;durP2;ratioP2;P2;SDS_P1;SDS_P2;PMS_P1;PMS_P2;Temp;Humidity;BMP_temperature;BMP_pressure;BME280_temperature;BME280_humidity;BME280_pressure;Samples;Min_cycle;Max_cycle;Signal;HPM_P1;HPM_P2
2022/08/01 00:00:10;;;;;;;;;;;24.60;91.90;;;;;;5035623;28;20023;-61
2022/08/01 00:02:37;;;;;;;;;;;24.70;91.80;;;;;;5035854;28;20498;-61
2022/08/01 00:05:05;;;;;;;;;;;24.80;91.90;;;;;;5036821;28;20302;-61
2022/08/01 00:07:31;;;;;;;;;;;25.00;91.90;;;;;;5053442;28;19925;-61
2022/08/01 00:09:56;;;;;;;;;;;24.70;92.00;;;;;;5054842;28;20023;-61
2022/08/01 00:12:22;;;;;;;;;;;24.70;91.80;;;;;;5055073;28;19928;-61
2022/08/01 00:14:48;;;;;;;;;;;24.70;91.80;;;;;;5055280;28;19929;-61
2022/08/01 00:17:13;;;;;;;;;;;24.80;91.90;;;;;;5039944;28;19921;-61
2022/08/01 00:19:39;;;;;;;;;;;24.80;91.80;;;;;;5035278;28;19925;-62
2022/08/01 00:22:04;;;;;;;;;;;24.80;91.80;;;;;;5035226;28;19961;-63
2022/08/01 00:24:30;;;;;;;;;;;24.60;91.80;;;;;;5051583;28;19932;-62
2022/08/01 00:26:56;;;;;;;;;;;24.90;91.80;;;;;;5049746;28;19925;-61
2022/08/01 00:29:21;;;;;;;;;;;24.70;91.80;;;;;;5055068;28;20364;-61
2022/08/01 00:31:47;;;;;;;;;;;24.60;91.80;;;;;;5053174;28;19932;-61
2022/08/01 00:34:12;;;;;;;;;;;24.80;91.80;;;;;;5048477;28;19932;-62
2022/08/01 00:36:38;;;;;;;;;;;25.10;91.90;;;;;;5034792;28;20059;-63
2022/08/01 00:39:03;;;;;;;;;;;24.90;91.80;;;;;;5050707;28;19924;-61
2022/08/01 00:41:29;;;;;;;;;;;24.80;91.80;;;;;;5053192;28;19932;-62
2022/08/01 00:43:55;;;;;;;;;;;25.10;91.90;;;;;;5054629;28;20351;-62
2022/08/01 00:46:20;;;;;;;;;;;24.60;91.80;;;;;;5054762;28;19948;-61
2022/08/01 00:48:46;;;;;;;;;;;24.60;91.70;;;;;;5063678;28;20371;-61
2022/08/01 00:51:11;;;;;;;;;;;25.10;91.90;;;;;;5053628;28;20362;-61
2022/08/01 00:53:37;;;;;;;;;;;25.00;91.80;;;;;;5054619;28;19932;-61
2022/08/01 00:56:03;;;;;;;;;;;24.80;91.80;;;;;;5042461;28;20345;-62
2022/08/01 00:58:30;;;;;;;;;;;24.60;91.60;;;;;;5045760;28;19925;-62
2022/08/01 01:00:56;;;;;;;;;;;24.80;91.80;;;;;;5053237;28;20402;-61
2022/08/01 01:03:22;;;;;;;;;;;25.00;91.80;;;;;;5054425;28;19936;-61
2022/08/01 01:05:48;;;;;;;;;;;24.80;91.80;;;;;;5054230;28;19951;-62
2022/08/01 01:08:16;;;;;;;;;;;24.60;91.80;;;;;;5068791;28;20413;-61
2022/08/01 01:10:52;;;;;;;;;;;24.70;91.80;;;;;;5063729;28;20027;-61
2022/08/01 01:13:31;;;;;;;;;;;24.70;91.20;;;;;;5052871;28;19925;-61
2022/08/01 01:16:00;;;;;;;;;;;24.60;91.20;;;;;;5054215;28;19932;-62
2022/08/01 01:18:28;;;;;;;;;;;24.80;91.20;;;;;;5069628;28;20342;-62
2022/08/01 01:20:57;;;;;;;;;;;24.70;91.20;;;;;;5050599;28;19925;-61
2022/08/01 01:23:32;;;;;;;;;;;24.70;91.20;;;;;;5035405;28;19968;-62
2022/08/01 01:26:04;;;;;;;;;;;24.80;91.20;;;;;;5034752;28;20359;-61
2022/08/01 01:28:59;;;;;;;;;;;24.60;91.20;;;;;;5049407;28;19948;-61
2022/08/01 01:31:24;;;;;;;;;;;24.70;91.20;;;;;;5044599;28;20293;-61
2022/08/01 01:33:50;;;;;;;;;;;24.60;91.70;;;;;;5069113;28;19925;-61
2022/08/01 01:36:16;;;;;;;;;;;24.70;91.70;;;;;;5069155;28;19968;-62
2022/08/01 01:38:42;;;;;;;;;;;24.70;91.80;;;;;;5069450;28;19928;-62
2022/08/01 01:41:10;;;;;;;;;;;24.70;91.80;;;;;;5049380;28;19970;-64
2022/08/01 01:43:35;;;;;;;;;;;24.80;91.80;;;;;;5034962;28;19979;-61
2022/08/01 01:46:01;;;;;;;;;;;24.60;91.70;;;;;;5049068;28;19972;-61
2022/08/01 01:48:27;;;;;;;;;;;24.60;91.80;;;;;;5035619;28;20298;-62
2022/08/01 01:50:53;;;;;;;;;;;24.60;91.70;;;;;;5033528;28;19932;-61
2022/08/01 01:53:19;;;;;;;;;;;24.70;91.70;;;;;;5038892;28;19932;-61
2022/08/01 01:55:45;;;;;;;;;;;24.50;91.70;;;;;;5048902;28;19927;-61
2022/08/01 01:58:12;;;;;;;;;;;24.70;91.70;;;;;;5032209;28;19925;-61
2022/08/01 02:00:37;;;;;;;;;;;24.80;91.80;;;;;;5034241;28;19925;-63
2022/08/01 02:03:03;;;;;;;;;;;24.80;91.70;;;;;;5039152;28;20290;-62
2022/08/01 02:05:29;;;;;;;;;;;24.70;91.80;;;;;;5034072;28;20282;-61
2022/08/01 02:07:55;;;;;;;;;;;24.70;91.60;;;;;;5016419;28;19971;-61
2022/08/01 02:10:20;;;;;;;;;;;24.40;91.60;;;;;;5050772;28;20348;-61
2022/08/01 02:12:46;;;;;;;;;;;24.60;91.60;;;;;;5050030;28;19928;-61
2022/08/01 02:15:13;;;;;;;;;;;24.60;91.60;;;;;;5066510;28;20336;-61
2022/08/01 02:17:40;;;;;;;;;;;24.60;91.70;;;;;;5054231;28;19928;-61
2022/08/01 02:20:06;;;;;;;;;;;24.70;91.80;;;;;;5072144;28;19920;-61
2022/08/01 02:22:36;;;;;;;;;;;25.00;91.60;;;;;;5057382;28;19932;-61
2022/08/01 02:25:07;;;;;;;;;;;24.70;91.80;;;;;;5052805;28;20322;-61
2022/08/01 02:27:34;;;;;;;;;;;24.40;91.10;;;;;;5056279;28;19932;-61
2022/08/01 02:30:01;;;;;;;;;;;24.90;91.80;;;;;;5057273;28;20294;-61
2022/08/01 02:32:46;;;;;;;;;;;24.70;91.80;;;;;;5056963;28;19925;-61
2022/08/01 02:35:18;;;;;;;;;;;24.50;91.10;;;;;;5036852;28;19936;-61
2022/08/01 02:37:43;;;;;;;;;;;24.60;91.10;;;;;;5052842;28;19925;-61
2022/08/01 02:40:09;;;;;;;;;;;24.80;91.70;;;;;;5035718;28;19931;-61
2022/08/01 02:42:34;;;;;;;;;;;24.60;91.60;;;;;;5035495;28;19956;-61
2022/08/01 02:45:00;;;;;;;;;;;24.60;91.70;;;;;;5053238;28;19925;-60
2022/08/01 02:47:26;;;;;;;;;;;24.60;91.60;;;;;;5054101;28;19971;-61
2022/08/01 02:49:52;;;;;;;;;;;24.70;91.60;;;;;;5059057;28;19929;-60
2022/08/01 02:52:17;;;;;;;;;;;24.70;91.80;;;;;;5051983;28;20012;-60
2022/08/01 02:54:43;;;;;;;;;;;24.50;91.60;;;;;;5052244;28;19983;-61
2022/08/01 02:57:09;;;;;;;;;;;24.70;91.70;;;;;;5063730;28;19925;-61
2022/08/01 02:59:37;;;;;;;;;;;24.80;91.70;;;;;;5050288;28;20402;-62
2022/08/01 03:02:04;;;;;;;;;;;24.40;91.70;;;;;;5051718;28;19929;-61
2022/08/01 03:04:30;;;;;;;;;;;24.50;91.60;;;;;;5052000;28;19925;-61
2022/08/01 03:06:58;;;;;;;;;;;24.60;91.60;;;;;;5049263;28;20024;-61
2022/08/01 03:09:24;;;;;;;;;;;24.60;91.70;;;;;;5051455;28;20275;-61
2022/08/01 03:11:50;;;;;;;;;;;24.30;91.70;;;;;;5051832;28;19926;-61
2022/08/01 03:14:16;;;;;;;;;;;24.70;91.60;;;;;;5051546;28;19925;-61
2022/08/01 03:16:41;;;;;;;;;;;24.60;91.60;;;;;;5054199;28;19944;-61
2022/08/01 03:19:08;;;;;;;;;;;24.40;91.60;;;;;;5053418;28;20012;-61
2022/08/01 03:21:34;;;;;;;;;;;24.40;91.60;;;;;;5071790;28;19925;-61
2022/08/01 03:24:00;;;;;;;;;;;24.30;91.60;;;;;;5053594;28;19926;-62
2022/08/01 03:26:26;;;;;;;;;;;24.70;91.60;;;;;;5038105;28;20378;-61
2022/08/01 03:28:51;;;;;;;;;;;24.40;91.60;;;;;;5050472;28;19929;-61
2022/08/01 03:31:17;;;;;;;;;;;24.70;91.60;;;;;;5071331;28;20286;-62
2022/08/01 03:33:42;;;;;;;;;;;24.20;91.40;;;;;;5056100;28;20394;-61
2022/08/01 03:36:09;;;;;;;;;;;24.30;91.50;;;;;;5056111;28;19983;-61
2022/08/01 03:38:34;;;;;;;;;;;24.30;91.60;;;;;;5051274;28;20007;-62
2022/08/01 03:41:02;;;;;;;;;;;24.40;91.50;;;;;;5054911;28;20016;-61
2022/08/01 03:43:37;;;;;;;;;;;24.60;91.60;;;;;;5071221;28;19921;-61
2022/08/01 03:46:07;;;;;;;;;;;24.60;91.00;;;;;;5071055;28;19968;-61
2022/08/01 03:48:34;;;;;;;;;;;24.50;91.60;;;;;;5070723;28;19928;-61
2022/08/01 03:51:00;;;;;;;;;;;24.50;91.80;;;;;;5044558;28;20272;-61
2022/08/01 03:53:26;;;;;;;;;;;24.30;91.40;;;;;;5035583;28;19940;-61
2022/08/01 03:55:51;;;;;;;;;;;24.60;91.50;;;;;;5051165;28;19929;-61
2022/08/01 03:58:17;;;;;;;;;;;24.30;91.30;;;;;;5034661;28;19968;-61
2022/08/01 04:00:43;;;;;;;;;;;24.20;91.40;;;;;;5035694;28;20282;-61
2022/08/01 04:03:09;;;;;;;;;;;24.50;91.40;;;;;;5039518;28;19957;-61
2022/08/01 04:05:35;;;;;;;;;;;24.50;91.40;;;;;;5055455;28;19925;-61
2022/08/01 04:08:02;;;;;;;;;;;24.30;91.30;;;;;;5055483;28;19925;-61
2022/08/01 04:10:27;;;;;;;;;;;24.40;91.40;;;;;;5051224;28;19926;-62
2022/08/01 04:12:53;;;;;;;;;;;24.30;91.20;;;;;;5053958;28;20298;-61
2022/08/01 04:15:20;;;;;;;;;;;24.60;91.30;;;;;;5048264;28;20325;-61
2022/08/01 04:17:45;;;;;;;;;;;24.50;91.30;;;;;;5034783;28;19925;-61
2022/08/01 04:20:11;;;;;;;;;;;24.50;91.30;;;;;;5035321;28;19971;-61
2022/08/01 04:22:37;;;;;;;;;;;24.70;91.40;;;;;;5047238;28;20018;-61
2022/08/01 04:25:04;;;;;;;;;;;24.40;91.20;;;;;;5054843;28;19968;-61
2022/08/01 04:27:31;;;;;;;;;;;24.50;91.20;;;;;;5054774;28;19932;-61
2022/08/01 04:29:56;;;;;;;;;;;24.60;91.30;;;;;;5055025;28;20394;-61
2022/08/01 04:32:22;;;;;;;;;;;24.30;91.10;;;;;;5064777;28;20015;-62
2022/08/01 04:34:48;;;;;;;;;;;24.40;91.20;;;;;;5041440;28;20287;-61
2022/08/01 04:37:13;;;;;;;;;;;24.40;91.10;;;;;;5049733;28;19925;-63
2022/08/01 04:39:39;;;;;;;;;;;24.40;91.00;;;;;;5049984;28;19929;-61
2022/08/01 04:42:05;;;;;;;;;;;24.30;91.10;;;;;;5034258;28;19995;-64
2022/08/01 04:44:32;;;;;;;;;;;24.60;91.00;;;;;;5035355;28;19925;-62
2022/08/01 04:47:02;;;;;;;;;;;24.50;91.00;;;;;;5034866;28;19929;-61
2022/08/01 04:49:31;;;;;;;;;;;24.80;90.40;;;;;;5057897;28;19924;-61
2022/08/01 04:51:57;;;;;;;;;;;24.60;90.30;;;;;;5065187;28;20453;-61
2022/08/01 04:54:24;;;;;;;;;;;24.40;90.80;;;;;;5049101;28;19924;-61
2022/08/01 04:56:50;;;;;;;;;;;24.80;91.20;;;;;;5054561;28;19924;-61
2022/08/01 05:02:00;;;;;;;;;;;24.50;90.20;;;;;;5054031;28;20418;-61
2022/08/01 05:04:26;;;;;;;;;;;24.40;90.60;;;;;;5041799;28;20023;-64
2022/08/01 05:06:52;;;;;;;;;;;24.80;90.30;;;;;;5042391;28;19930;-61
2022/08/01 05:09:18;;;;;;;;;;;24.60;90.70;;;;;;5034036;28;19971;-61
2022/08/01 05:11:43;;;;;;;;;;;24.70;90.50;;;;;;5034031;28;19925;-60
2022/08/01 05:14:09;;;;;;;;;;;24.80;90.50;;;;;;5048364;28;19939;-61
2022/08/01 05:16:35;;;;;;;;;;;25.00;90.30;;;;;;5036332;28;19929;-60
2022/08/01 05:19:02;;;;;;;;;;;25.10;90.50;;;;;;5032808;28;19944;-61
2022/08/01 05:21:27;;;;;;;;;;;25.30;90.30;;;;;;5032915;28;19925;-60
2022/08/01 05:23:53;;;;;;;;;;;25.20;90.20;;;;;;5035928;28;19921;-61
2022/08/01 05:26:19;;;;;;;;;;;25.60;90.00;;;;;;5033647;28;19925;-60
2022/08/01 05:28:44;;;;;;;;;;;25.30;89.50;;;;;;5033860;28;20026;-61
2022/08/01 05:31:10;;;;;;;;;;;25.70;89.50;;;;;;5033914;28;19925;-61
2022/08/01 05:33:35;;;;;;;;;;;25.70;88.90;;;;;;5033426;28;20444;-63
2022/08/01 05:36:01;;;;;;;;;;;25.60;88.50;;;;;;5036519;28;19925;-61
2022/08/01 05:38:27;;;;;;;;;;;25.80;88.70;;;;;;5034061;28;19926;-61
2022/08/01 05:40:52;;;;;;;;;;;25.70;88.50;;;;;;5043791;28;19939;-60
2022/08/01 05:43:18;;;;;;;;;;;25.80;88.60;;;;;;5053756;28;19975;-60
2022/08/01 05:45:44;;;;;;;;;;;25.80;88.40;;;;;;5049898;28;19928;-60
2022/08/01 05:48:10;;;;;;;;;;;25.60;88.40;;;;;;5053563;28;19925;-61
2022/08/01 05:50:36;;;;;;;;;;;25.70;88.60;;;;;;5051181;28;19925;-60
2022/08/01 05:53:01;;;;;;;;;;;25.30;88.30;;;;;;5036126;28;19936;-60
2022/08/01 05:55:27;;;;;;;;;;;25.30;88.40;;;;;;5038920;28;20329;-60
2022/08/01 05:57:52;;;;;;;;;;;25.20;88.30;;;;;;5038199;28;19925;-61
2022/08/01 06:00:18;;;;;;;;;;;25.10;88.30;;;;;;5037897;28;19925;-61
2022/08/01 06:02:44;;;;;;;;;;;25.10;88.30;;;;;;5046075;28;20272;-63
2022/08/01 06:05:09;;;;;;;;;;;25.20;88.40;;;;;;5037893;28;20298;-60
2022/08/01 06:07:35;;;;;;;;;;;25.20;88.10;;;;;;5053176;28;19925;-60
2022/08/01 06:10:00;;;;;;;;;;;25.10;88.10;;;;;;5072394;28;19961;-61
2022/08/01 06:12:26;;;;;;;;;;;25.00;88.20;;;;;;5048986;28;20387;-61
2022/08/01 06:14:52;;;;;;;;;;;25.50;88.40;;;;;;5048884;28;20276;-61
2022/08/01 06:17:17;;;;;;;;;;;25.10;88.10;;;;;;5050889;28;19932;-60
2022/08/01 06:19:43;;;;;;;;;;;25.20;88.30;;;;;;5036769;28;19925;-64
2022/08/01 06:22:08;;;;;;;;;;;25.00;88.20;;;;;;5049462;28;20329;-61
2022/08/01 06:24:34;;;;;;;;;;;24.80;88.00;;;;;;5057062;28;20019;-61
2022/08/01 06:27:00;;;;;;;;;;;25.00;88.00;;;;;;5056899;28;19931;-63
2022/08/01 06:29:25;;;;;;;;;;;25.20;88.10;;;;;;5056842;28;19925;-62
2022/08/01 06:31:51;;;;;;;;;;;24.90;87.80;;;;;;5050843;28;19933;-62
2022/08/01 06:34:17;;;;;;;;;;;24.90;87.90;;;;;;5057255;28;19925;-61
2022/08/01 06:36:42;;;;;;;;;;;24.80;87.50;;;;;;5055766;28;20007;-61
2022/08/01 06:39:08;;;;;;;;;;;25.10;87.80;;;;;;5056831;28;20453;-62
2022/08/01 06:41:34;;;;;;;;;;;25.00;87.50;;;;;;5052850;28;19929;-62
2022/08/01 06:44:02;;;;;;;;;;;24.60;87.20;;;;;;5039343;28;19925;-61
2022/08/01 06:46:27;;;;;;;;;;;24.90;87.40;;;;;;5037094;28;20268;-60
2022/08/01 06:48:53;;;;;;;;;;;24.80;87.30;;;;;;5048667;28;19932;-60
2022/08/01 06:51:20;;;;;;;;;;;24.70;86.90;;;;;;5072087;28;19925;-61
2022/08/01 06:53:46;;;;;;;;;;;24.90;87.20;;;;;;5050066;28;19924;-61
2022/08/01 06:56:11;;;;;;;;;;;24.80;87.00;;;;;;5056883;28;20381;-61
2022/08/01 06:58:37;;;;;;;;;;;24.80;87.00;;;;;;5056124;28;20000;-61
2022/08/01 07:01:05;;;;;;;;;;;24.80;87.00;;;;;;5056793;28;19925;-61
2022/08/01 07:03:31;;;;;;;;;;;24.80;87.00;;;;;;5050377;28;20336;-61
2022/08/01 07:05:57;;;;;;;;;;;24.90;87.10;;;;;;5043689;28;19929;-64
2022/08/01 07:08:23;;;;;;;;;;;24.60;86.50;;;;;;5055962;28;19931;-60
2022/08/01 07:10:48;;;;;;;;;;;24.70;86.30;;;;;;5056419;28;20038;-61
2022/08/01 07:13:20;;;;;;;;;;;24.80;86.50;;;;;;5044470;28;20333;-62
2022/08/01 07:15:46;;;;;;;;;;;24.70;86.60;;;;;;5054648;28;19927;-60
2022/08/01 07:18:11;;;;;;;;;;;24.80;86.90;;;;;;5053741;28;20352;-60
2022/08/01 07:20:37;;;;;;;;;;;24.80;86.50;;;;;;5052969;28;20011;-61
2022/08/01 07:23:03;;;;;;;;;;;24.70;86.50;;;;;;5055478;28;19931;-60
2022/08/01 07:25:28;;;;;;;;;;;24.70;86.30;;;;;;5056217;28;19971;-61
2022/08/01 07:27:54;;;;;;;;;;;25.10;86.60;;;;;;5041936;28;19921;-62
2022/08/01 07:30:19;;;;;;;;;;;24.70;86.40;;;;;;5045490;28;19925;-64
2022/08/01 07:32:45;;;;;;;;;;;24.60;86.20;;;;;;5041284;28;19929;-61
2022/08/01 07:35:11;;;;;;;;;;;24.90;86.00;;;;;;5046783;28;19979;-63
2022/08/01 07:37:36;;;;;;;;;;;24.90;86.20;;;;;;5048655;28;20358;-66
2022/08/01 07:40:04;;;;;;;;;;;24.90;86.20;;;;;;5036621;28;20000;-61
2022/08/01 07:42:29;;;;;;;;;;;24.90;86.30;;;;;;5035594;28;20327;-61
2022/08/01 07:44:55;;;;;;;;;;;24.60;85.70;;;;;;5038928;28;20022;-61
2022/08/01 07:47:26;;;;;;;;;;;24.90;86.10;;;;;;5055203;28;20405;-62
2022/08/01 07:49:52;;;;;;;;;;;24.90;84.70;;;;;;5038402;28;20062;-61
2022/08/01 07:52:18;;;;;;;;;;;24.80;85.60;;;;;;5035832;28;19965;-62
2022/08/01 07:54:43;;;;;;;;;;;25.00;85.30;;;;;;5035837;28;19925;-61
2022/08/01 07:57:09;;;;;;;;;;;25.00;85.50;;;;;;5045147;28;20007;-61
2022/08/01 07:59:35;;;;;;;;;;;25.10;85.20;;;;;;5043628;28;19925;-62
2022/08/01 08:02:00;;;;;;;;;;;25.10;85.30;;;;;;5035720;28;19968;-61
2022/08/01 08:04:26;;;;;;;;;;;25.00;85.00;;;;;;5035651;28;20322;-62
2022/08/01 08:06:53;;;;;;;;;;;25.00;85.20;;;;;;5042426;28;19932;-67
2022/08/01 08:09:18;;;;;;;;;;;24.90;84.60;;;;;;5050919;28;19925;-64
2022/08/01 08:11:44;;;;;;;;;;;24.90;84.40;;;;;;5035110;28;20008;-61
2022/08/01 08:14:10;;;;;;;;;;;25.10;84.70;;;;;;5035358;28;20286;-67
2022/08/01 08:16:36;;;;;;;;;;;25.00;84.30;;;;;;5034500;28;19928;-67
2022/08/01 08:19:02;;;;;;;;;;;25.20;83.60;;;;;;5036026;28;20016;-67
2022/08/01 08:21:28;;;;;;;;;;;25.10;83.50;;;;;;5034096;28;20282;-67
2022/08/01 08:26:38;;;;;;;;;;;25.50;82.90;;;;;;5035159;28;20020;-67
2022/08/01 08:29:03;;;;;;;;;;;25.20;83.40;;;;;;5048756;28;19980;-62
2022/08/01 08:31:32;;;;;;;;;;;25.20;83.10;;;;;;5036420;28;19925;-62
2022/08/01 08:33:58;;;;;;;;;;;25.80;82.30;;;;;;5035082;28;20355;-67
2022/08/01 08:36:24;;;;;;;;;;;25.50;82.80;;;;;;5035941;28;19965;-67
2022/08/01 08:38:49;;;;;;;;;;;25.50;82.70;;;;;;5037755;28;19969;-67
2022/08/01 08:41:15;;;;;;;;;;;25.90;82.70;;;;;;5034380;28;19925;-67
2022/08/01 08:43:41;;;;;;;;;;;25.70;82.40;;;;;;5034485;28;19983;-67
2022/08/01 08:46:06;;;;;;;;;;;25.50;82.00;;;;;;5036233;28;19925;-67
2022/08/01 08:48:32;;;;;;;;;;;25.60;81.80;;;;;;5050497;28;19995;-67
2022/08/01 08:50:57;;;;;;;;;;;26.00;81.80;;;;;;5034356;28;19932;-68
2022/08/01 08:53:23;;;;;;;;;;;26.00;81.60;;;;;;5034416;28;19925;-68
2022/08/01 08:55:49;;;;;;;;;;;26.20;81.30;;;;;;5052019;28;19925;-68
2022/08/01 08:58:14;;;;;;;;;;;26.20;81.30;;;;;;5034569;28;20018;-68
2022/08/01 09:00:40;;;;;;;;;;;26.20;81.30;;;;;;5034576;28;19925;-68
2022/08/01 09:03:06;;;;;;;;;;;26.10;81.20;;;;;;5029093;28;20466;-68
2022/08/01 09:05:31;;;;;;;;;;;26.40;80.90;;;;;;5036531;28;19933;-68
2022/08/01 09:07:57;;;;;;;;;;;26.40;80.70;;;;;;5049683;28;19925;-68
2022/08/01 09:10:23;;;;;;;;;;;26.30;80.40;;;;;;5036846;28;19932;-67
2022/08/01 09:13:18;;;;;;;;;;;26.30;80.20;;;;;;5054116;28;19925;-68
2022/08/01 09:15:47;;;;;;;;;;;26.40;79.10;;;;;;5012254;28;19933;-67
2022/08/01 09:18:34;;;;;;;;;;;26.30;78.80;;;;;;5008055;28;20440;-68
2022/08/01 09:21:05;;;;;;;;;;;26.40;78.70;;;;;;4988366;28;19933;-67
2022/08/01 09:23:39;;;;;;;;;;;26.50;78.60;;;;;;5024881;28;20068;-64
2022/08/01 09:26:06;;;;;;;;;;;26.70;78.80;;;;;;4984519;28;20430;-62
2022/08/01 09:28:32;;;;;;;;;;;26.50;79.60;;;;;;5011735;28;19975;-61
2022/08/01 09:30:58;;;;;;;;;;;26.30;79.40;;;;;;5010655;28;19925;-62
2022/08/01 09:33:23;;;;;;;;;;;26.70;79.70;;;;;;5011645;28;20303;-62
2022/08/01 09:35:56;;;;;;;;;;;26.60;79.50;;;;;;5012071;28;20004;-62
2022/08/01 09:38:26;;;;;;;;;;;26.50;78.10;;;;;;5010550;28;20287;-64
2022/08/01 09:40:53;;;;;;;;;;;26.50;78.20;;;;;;4991464;28;20009;-62
2022/08/01 09:43:19;;;;;;;;;;;26.40;79.40;;;;;;4946187;28;19925;-63
2022/08/01 09:45:45;;;;;;;;;;;26.40;78.80;;;;;;4997226;28;20017;-63
2022/08/01 09:48:15;;;;;;;;;;;26.60;79.20;;;;;;5006242;28;20451;-63
2022/08/01 09:50:44;;;;;;;;;;;26.70;78.40;;;;;;5011059;28;19936;-62
2022/08/01 09:53:10;;;;;;;;;;;26.70;79.30;;;;;;5049095;28;19932;-63
2022/08/01 09:55:39;;;;;;;;;;;26.70;79.20;;;;;;5044432;28;19986;-62
2022/08/01 09:58:05;;;;;;;;;;;26.80;77.80;;;;;;5034553;28;19976;-62
2022/08/01 10:00:31;;;;;;;;;;;26.60;78.80;;;;;;5032575;28;20003;-63
2022/08/01 10:02:57;;;;;;;;;;;26.60;79.00;;;;;;5032535;28;19932;-62
2022/08/01 10:05:30;;;;;;;;;;;26.70;78.70;;;;;;5033787;28;20306;-63
2022/08/01 10:07:59;;;;;;;;;;;26.40;77.30;;;;;;5034670;28;20014;-62
2022/08/01 10:10:25;;;;;;;;;;;26.60;78.60;;;;;;5037998;28;19925;-62
2022/08/01 10:12:51;;;;;;;;;;;26.60;78.30;;;;;;5047715;28;20291;-62
2022/08/01 10:15:16;;;;;;;;;;;26.50;78.50;;;;;;5042829;28;19986;-62
2022/08/01 10:17:45;;;;;;;;;;;26.40;78.20;;;;;;5067011;28;20363;-62
2022/08/01 10:20:11;;;;;;;;;;;26.80;78.60;;;;;;5031495;28;20019;-68
2022/08/01 10:22:36;;;;;;;;;;;26.70;78.30;;;;;;5044667;28;20101;-63
2022/08/01 10:25:03;;;;;;;;;;;26.80;78.10;;;;;;5032993;28;19925;-62
2022/08/01 10:27:29;;;;;;;;;;;26.50;78.10;;;;;;5033159;28;19925;-62
2022/08/01 10:29:56;;;;;;;;;;;26.70;77.80;;;;;;5041856;28;19927;-61
2022/08/01 10:32:21;;;;;;;;;;;26.30;77.90;;;;;;5033537;28;19975;-62
2022/08/01 10:34:48;;;;;;;;;;;26.80;78.00;;;;;;5035526;28;20382;-63
2022/08/01 10:37:14;;;;;;;;;;;26.30;77.90;;;;;;5032322;28;20015;-68
2022/08/01 10:39:39;;;;;;;;;;;26.60;77.90;;;;;;5035232;28;20004;-62
2022/08/01 10:42:05;;;;;;;;;;;26.30;77.50;;;;;;5039102;28;20283;-61
2022/08/01 10:44:31;;;;;;;;;;;26.60;77.70;;;;;;5037525;28;19929;-61
2022/08/01 10:47:07;;;;;;;;;;;26.60;77.40;;;;;;5048776;28;19925;-62
2022/08/01 10:49:35;;;;;;;;;;;26.30;77.60;;;;;;5071822;28;19924;-61
2022/08/01 10:52:00;;;;;;;;;;;26.30;77.50;;;;;;5065356;28;19925;-62
2022/08/01 10:54:26;;;;;;;;;;;26.50;77.50;;;;;;5052784;28;19932;-62
2022/08/01 10:56:52;;;;;;;;;;;26.70;77.40;;;;;;5050989;28;19932;-62
2022/08/01 10:59:21;;;;;;;;;;;26.60;77.40;;;;;;5037148;28;20290;-61
2022/08/01 11:02:13;;;;;;;;;;;26.50;76.00;;;;;;5036982;28;19976;-62
2022/08/01 11:04:45;;;;;;;;;;;26.70;76.20;;;;;;5053393;28;19925;-61
2022/08/01 11:07:16;;;;;;;;;;;26.70;76.20;;;;;;5056983;28;19925;-68
2022/08/01 11:09:43;;;;;;;;;;;26.40;75.90;;;;;;5056184;28;19925;-69
2022/08/01 11:12:09;;;;;;;;;;;26.70;77.40;;;;;;5056326;28;19931;-68
2022/08/01 11:14:55;;;;;;;;;;;26.60;76.90;;;;;;5040084;28;19933;-61
2022/08/01 11:17:36;;;;;;;;;;;26.70;77.20;;;;;;5036553;28;19925;-62
2022/08/01 11:20:11;;;;;;;;;;;26.20;75.50;;;;;;5036889;28;19925;-62
2022/08/01 11:22:55;;;;;;;;;;;26.60;75.60;;;;;;5036476;28;19968;-62
2022/08/01 11:25:21;;;;;;;;;;;26.50;75.60;;;;;;5038613;28;20086;-62
2022/08/01 11:27:46;;;;;;;;;;;26.50;76.40;;;;;;5054395;28;20282;-68
2022/08/01 11:30:12;;;;;;;;;;;26.30;76.70;;;;;;5056200;28;19994;-61
2022/08/01 11:32:48;;;;;;;;;;;26.70;76.90;;;;;;5055868;28;19932;-64
2022/08/01 11:35:13;;;;;;;;;;;26.40;75.60;;;;;;5056132;28;19978;-66
2022/08/01 11:37:39;;;;;;;;;;;26.50;76.30;;;;;;5045451;28;19929;-64
2022/08/01 11:40:20;;;;;;;;;;;26.50;76.60;;;;;;5053517;28;20428;-65
2022/08/01 11:42:46;;;;;;;;;;;26.50;75.30;;;;;;5055474;28;20019;-62
2022/08/01 11:45:12;;;;;;;;;;;26.40;76.70;;;;;;5071217;28;19994;-61
2022/08/01 11:47:47;;;;;;;;;;;26.30;76.80;;;;;;5040561;28;19925;-61
2022/08/01 11:50:28;;;;;;;;;;;26.30;75.20;;;;;;5036594;28;19979;-61
2022/08/01 11:53:00;;;;;;;;;;;26.60;75.70;;;;;;5035473;28;19951;-61
2022/08/01 11:55:26;;;;;;;;;;;26.80;76.10;;;;;;5050197;28;19932;-61
2022/08/01 11:57:58;;;;;;;;;;;26.40;75.90;;;;;;5055719;28;19974;-61
2022/08/01 12:00:23;;;;;;;;;;;26.50;76.30;;;;;;5043720;28;20327;-61
2022/08/01 12:02:56;;;;;;;;;;;26.60;76.30;;;;;;5035932;28;19932;-60
2022/08/01 12:05:21;;;;;;;;;;;26.60;76.90;;;;;;5035555;28;20280;-61
2022/08/01 12:07:49;;;;;;;;;;;26.30;75.90;;;;;;5033964;28;20062;-62
2022/08/01 12:10:15;;;;;;;;;;;26.50;76.40;;;;;;5040448;28;19932;-65
2022/08/01 12:12:44;;;;;;;;;;;26.40;76.20;;;;;;5036398;28;20023;-67
2022/08/01 12:15:12;;;;;;;;;;;26.40;74.80;;;;;;5033642;28;20263;-67
2022/08/01 12:17:38;;;;;;;;;;;26.40;75.70;;;;;;5034201;28;19931;-66
2022/08/01 12:20:05;;;;;;;;;;;26.60;75.90;;;;;;5036434;28;19960;-65
2022/08/01 12:22:30;;;;;;;;;;;26.50;75.40;;;;;;5051493;28;19968;-61
2022/08/01 12:24:56;;;;;;;;;;;26.40;75.40;;;;;;5054884;28;19952;-61
2022/08/01 12:27:29;;;;;;;;;;;26.30;75.30;;;;;;5070367;28;19924;-61
2022/08/01 12:29:55;;;;;;;;;;;26.40;74.20;;;;;;5054167;28;19925;-62
2022/08/01 12:32:24;;;;;;;;;;;26.40;75.60;;;;;;5048539;28;19951;-61
2022/08/01 12:34:50;;;;;;;;;;;26.50;75.60;;;;;;5054979;28;20336;-66
2022/08/01 12:37:16;;;;;;;;;;;26.00;74.90;;;;;;5054983;28;19928;-61
2022/08/01 12:39:41;;;;;;;;;;;26.40;75.20;;;;;;5070360;28;20289;-62
2022/08/01 12:42:07;;;;;;;;;;;26.10;74.90;;;;;;5048021;28;19924;-61
2022/08/01 12:44:33;;;;;;;;;;;26.40;75.60;;;;;;5053341;28;19931;-61
2022/08/01 12:46:59;;;;;;;;;;;26.20;75.30;;;;;;5034825;28;19925;-62
2022/08/01 12:49:24;;;;;;;;;;;26.50;75.20;;;;;;5034832;28;20371;-63
2022/08/01 12:51:50;;;;;;;;;;;26.20;74.90;;;;;;5054050;28;20286;-62
2022/08/01 12:54:16;;;;;;;;;;;26.10;74.90;;;;;;5034100;28;19971;-60
2022/08/01 12:56:41;;;;;;;;;;;26.00;74.70;;;;;;5049885;28;19929;-67
2022/08/01 12:59:24;;;;;;;;;;;26.10;74.70;;;;;;5034622;28;19921;-66
2022/08/01 13:01:53;;;;;;;;;;;25.90;73.70;;;;;;5034478;28;19929;-61
2022/08/01 13:04:20;;;;;;;;;;;26.10;73.60;;;;;;5038283;28;20003;-62
2022/08/01 13:06:45;;;;;;;;;;;25.90;74.90;;;;;;5034292;28;19925;-61
2022/08/01 13:09:14;;;;;;;;;;;26.10;74.80;;;;;;5034231;28;19925;-61
2022/08/01 13:11:40;;;;;;;;;;;26.00;74.50;;;;;;5034899;28;20433;-61
2022/08/01 13:14:06;;;;;;;;;;;26.20;75.00;;;;;;5035344;28;20023;-61
2022/08/01 13:16:32;;;;;;;;;;;26.00;73.90;;;;;;5053895;28;20421;-63
2022/08/01 13:18:58;;;;;;;;;;;26.00;74.20;;;;;;5049738;28;19925;-61
2022/08/01 13:21:31;;;;;;;;;;;26.10;74.30;;;;;;5050008;28;19932;-61
2022/08/01 13:24:06;;;;;;;;;;;25.90;73.10;;;;;;5047147;28;19929;-61
2022/08/01 13:26:42;;;;;;;;;;;25.90;73.20;;;;;;5048976;28;19935;-61
2022/08/01 13:29:08;;;;;;;;;;;26.00;73.20;;;;;;5054113;28;19929;-62
2022/08/01 13:31:33;;;;;;;;;;;26.20;74.50;;;;;;5053990;28;20032;-62
2022/08/01 13:33:59;;;;;;;;;;;26.00;74.20;;;;;;5041111;28;19981;-61
2022/08/01 13:36:28;;;;;;;;;;;26.00;73.80;;;;;;5040799;28;20414;-63
2022/08/01 13:41:38;;;;;;;;;;;26.10;74.20;;;;;;5067046;28;19925;-62
2022/08/01 13:44:03;;;;;;;;;;;25.90;73.80;;;;;;5053817;28;19924;-62
2022/08/01 13:46:29;;;;;;;;;;;26.20;73.90;;;;;;5038666;28;20425;-62
2022/08/01 13:48:55;;;;;;;;;;;25.70;73.70;;;;;;5052581;28;19921;-61
2022/08/01 13:51:21;;;;;;;;;;;25.90;73.00;;;;;;5053769;28;19929;-61
2022/08/01 13:53:46;;;;;;;;;;;25.70;73.50;;;;;;5064130;28;19925;-61
2022/08/01 13:56:12;;;;;;;;;;;26.00;73.70;;;;;;5072160;28;20070;-62
2022/08/01 13:58:38;;;;;;;;;;;25.80;73.50;;;;;;5058030;28;20290;-61
2022/08/01 14:01:03;;;;;;;;;;;25.90;73.90;;;;;;5053723;28;19956;-61
2022/08/01 14:03:29;;;;;;;;;;;25.80;73.70;;;;;;5053720;28;19948;-61
2022/08/01 14:05:56;;;;;;;;;;;26.00;74.10;;;;;;5054256;28;19947;-62
2022/08/01 14:08:21;;;;;;;;;;;25.80;74.00;;;;;;5058448;28;20385;-62
2022/08/01 14:10:47;;;;;;;;;;;25.80;73.70;;;;;;5052831;28;20011;-62
2022/08/01 14:13:13;;;;;;;;;;;25.80;73.60;;;;;;5054251;28;19972;-62
2022/08/01 14:15:39;;;;;;;;;;;26.00;73.50;;;;;;5057697;28;19925;-61
2022/08/01 14:18:05;;;;;;;;;;;25.70;73.60;;;;;;5059657;28;20313;-62
2022/08/01 14:20:31;;;;;;;;;;;26.00;74.10;;;;;;5057630;28;20023;-61
2022/08/01 14:22:56;;;;;;;;;;;25.90;73.70;;;;;;5039454;28;20465;-61